createdAt,value
2019-06-10T00:00:42.028Z,47.00
2019-06-10T00:03:11.807Z,47.30
2019-06-10T00:05:41.605Z,47.10
2019-06-10T00:08:11.982Z,46.30
2019-06-10T00:10:42.185Z,47.00
2019-06-10T00:13:12.041Z,47.20
2019-06-10T00:15:41.417Z,47.10
2019-06-10T00:18:34.034Z,47.40
2019-06-10T00:20:41.347Z,47.10
2019-06-10T00:23:12.191Z,47.10
2019-06-10T00:25:41.586Z,47.40
2019-06-10T00:28:12.174Z,47.30
2019-06-10T00:30:41.295Z,47.30
2019-06-10T00:33:12.703Z,47.30
2019-06-10T00:35:41.216Z,46.80
2019-06-10T00:38:14.070Z,47.20
2019-06-10T00:40:41.511Z,47.10
2019-06-10T00:43:13.270Z,47.60
2019-06-10T00:45:41.179Z,47.40
2019-06-10T00:48:24.726Z,47.20
2019-06-10T00:50:41.752Z,47.30
2019-06-10T00:53:14.272Z,47.40
2019-06-10T00:55:41.446Z,47.40
2019-06-10T00:58:13.669Z,47.20
2019-06-10T01:00:41.643Z,47.60
2019-06-10T01:03:13.450Z,46.90
2019-06-10T01:05:42.163Z,46.40
2019-06-10T01:08:15.135Z,47.40
2019-06-10T01:10:43.919Z,47.50
2019-06-10T01:13:14.022Z,47.10
2019-06-10T01:15:42.864Z,47.30
2019-06-10T01:18:30.569Z,47.40
2019-06-10T01:20:41.770Z,47.60
2019-06-10T01:23:13.568Z,47.10
2019-06-10T01:25:42.376Z,47.20
2019-06-10T01:28:13.401Z,47.80
2019-06-10T01:30:41.564Z,47.40
2019-06-10T01:33:12.372Z,47.40
2019-06-10T01:35:41.589Z,47.60
2019-06-10T01:38:13.026Z,47.50
2019-06-10T01:40:42.107Z,48.10
2019-06-10T01:43:13.993Z,47.50
2019-06-10T01:45:42.198Z,47.70
2019-06-10T01:48:12.079Z,47.90
2019-06-10T01:50:41.719Z,47.50
2019-06-10T01:53:14.004Z,47.40
2019-06-10T01:55:41.905Z,47.80
2019-06-10T01:58:14.663Z,48.30
2019-06-10T02:00:42.625Z,47.60
2019-06-10T02:03:13.533Z,47.90
2019-06-10T02:05:42.043Z,47.90
2019-06-10T02:08:11.710Z,48.70
2019-06-10T02:10:41.564Z,47.80
2019-06-10T02:13:13.640Z,48.50
2019-06-10T02:15:42.334Z,47.80
2019-06-10T02:18:13.506Z,48.40
2019-06-10T02:20:41.325Z,48.10
2019-06-10T02:23:12.300Z,47.80
2019-06-10T02:25:41.263Z,48.10
2019-06-10T02:28:13.093Z,48.20
2019-06-10T02:30:50.271Z,48.30
2019-06-10T02:33:12.704Z,48.30
2019-06-10T02:35:48.443Z,48.20
2019-06-10T02:38:16.847Z,48.40
2019-06-10T02:40:43.211Z,48.00
2019-06-10T02:43:17.456Z,47.80
2019-06-10T02:45:44.576Z,47.80
2019-06-10T02:48:16.945Z,48.50
2019-06-10T02:50:53.885Z,48.40
2019-06-10T02:53:30.111Z,48.30
2019-06-10T02:55:54.168Z,48.10
2019-06-10T02:58:30.382Z,48.20
2019-06-10T03:00:54.648Z,48.00
2019-06-10T03:03:35.918Z,48.50
2019-06-10T03:05:54.098Z,48.30
2019-06-10T03:08:28.659Z,48.10
2019-06-10T03:10:54.672Z,48.30
2019-06-10T03:13:25.454Z,48.30
2019-06-10T03:16:13.129Z,47.80
2019-06-10T03:18:43.426Z,48.00
2019-06-10T03:21:12.499Z,47.50
2019-06-10T03:23:42.718Z,48.20
2019-06-10T03:26:12.375Z,47.90
2019-06-10T03:28:42.837Z,47.70
2019-06-10T03:31:15.153Z,47.70
2019-06-10T03:33:47.335Z,47.70
2019-06-10T03:36:12.533Z,47.60
2019-06-10T03:38:43.228Z,47.80
2019-06-10T03:41:12.460Z,47.80
2019-06-10T03:43:43.018Z,48.00
2019-06-10T03:46:13.683Z,47.80
2019-06-10T03:48:43.352Z,47.60
2019-06-10T03:51:12.763Z,47.80
2019-06-10T03:53:42.610Z,47.80
2019-06-10T03:56:12.829Z,47.70
2019-06-10T03:58:43.013Z,47.50
2019-06-10T04:01:12.463Z,47.60
2019-06-10T04:03:42.766Z,47.50
2019-06-10T04:06:12.932Z,47.20
2019-06-10T04:08:43.370Z,46.90
2019-06-10T04:11:12.278Z,46.60
2019-06-10T04:13:43.170Z,46.80
2019-06-10T04:16:13.126Z,47.40
2019-06-10T04:18:42.965Z,47.40
2019-06-10T04:21:12.862Z,46.80
2019-06-10T04:23:42.335Z,47.40
2019-06-10T04:26:12.824Z,46.60
2019-06-10T04:28:42.998Z,46.60
2019-06-10T04:31:13.082Z,46.90
2019-06-10T04:33:42.254Z,46.60
2019-06-10T04:36:13.245Z,46.50
2019-06-10T04:38:43.178Z,46.60
2019-06-10T04:41:12.572Z,46.00
2019-06-10T04:43:43.233Z,46.00
2019-06-10T04:46:12.586Z,45.40
2019-06-10T04:48:42.643Z,44.90
2019-06-10T04:51:12.952Z,43.40
2019-06-10T04:53:43.482Z,44.00
2019-06-10T04:56:12.344Z,43.40
2019-06-10T04:58:43.325Z,43.30
2019-06-10T05:01:12.449Z,42.20
2019-06-10T05:03:43.173Z,41.80
2019-06-10T05:06:12.331Z,40.70
2019-06-10T05:08:42.676Z,40.50
2019-06-10T05:11:12.849Z,41.10
2019-06-10T05:13:42.856Z,41.60
2019-06-10T05:16:12.488Z,40.60
2019-06-10T05:18:42.478Z,39.90
2019-06-10T05:21:13.110Z,38.90
2019-06-10T05:23:43.066Z,37.60
2019-06-10T05:26:13.338Z,37.30
2019-06-10T05:28:43.228Z,34.70
2019-06-10T05:31:12.895Z,36.40
2019-06-10T05:33:42.662Z,35.30
2019-06-10T05:36:13.048Z,33.30
2019-06-10T05:38:43.477Z,33.30
2019-06-10T05:41:13.354Z,34.10
2019-06-10T05:43:43.090Z,32.80
2019-06-10T05:46:13.356Z,32.80
2019-06-10T05:48:43.798Z,33.10
2019-06-10T05:51:12.788Z,32.40
2019-06-10T05:53:42.700Z,32.80
2019-06-10T05:56:12.806Z,32.50
2019-06-10T05:58:43.713Z,32.00
2019-06-10T06:01:13.228Z,33.70
2019-06-10T06:03:43.888Z,37.30
2019-06-10T06:06:12.638Z,36.40
2019-06-10T06:08:42.836Z,32.60
2019-06-10T06:11:12.767Z,35.70
2019-06-10T06:13:43.207Z,33.80
2019-06-10T06:16:12.598Z,34.70
2019-06-10T06:18:42.211Z,32.60
2019-06-10T06:21:22.640Z,35.40
2019-06-10T06:23:43.562Z,32.60
2019-06-10T06:26:16.375Z,32.80
2019-06-10T06:28:43.160Z,35.40
2019-06-10T06:31:12.843Z,31.80
2019-06-10T06:33:43.314Z,33.80
2019-06-10T06:36:12.578Z,33.60
2019-06-10T06:38:43.655Z,37.80
2019-06-10T06:41:13.621Z,35.10
2019-06-10T06:43:44.969Z,38.20
2019-06-10T06:46:12.823Z,35.50
2019-06-10T06:48:43.718Z,37.10
2019-06-10T06:51:12.976Z,35.00
2019-06-10T06:53:50.597Z,34.70
2019-06-10T06:56:12.684Z,34.90
2019-06-10T06:58:43.284Z,34.00
2019-06-10T07:01:14.572Z,35.50
2019-06-10T07:03:45.029Z,35.10
2019-06-10T07:06:14.683Z,35.80
2019-06-10T07:09:00.606Z,37.80
2019-06-10T07:11:18.409Z,36.20
2019-06-10T07:13:47.244Z,36.30
2019-06-10T07:16:16.008Z,36.50
2019-06-10T07:18:49.981Z,39.40
2019-06-10T07:21:14.810Z,35.30
2019-06-10T07:23:46.895Z,34.90
2019-06-10T07:26:13.641Z,38.80
2019-06-10T07:28:46.592Z,36.30
2019-06-10T07:31:23.087Z,37.40
2019-06-10T07:33:45.939Z,36.40
2019-06-10T07:36:13.245Z,36.20
2019-06-10T07:38:47.014Z,37.20
2019-06-10T07:41:12.681Z,35.70
2019-06-10T07:43:47.519Z,36.20
2019-06-10T07:46:13.418Z,37.90
2019-06-10T07:48:46.230Z,38.00
2019-06-10T07:51:13.088Z,37.20
2019-06-10T07:53:45.106Z,36.40
2019-06-10T07:56:12.978Z,36.40
2019-06-10T07:58:46.947Z,36.70
2019-06-10T08:01:13.118Z,37.10
2019-06-10T08:03:45.035Z,37.30
2019-06-10T08:06:12.875Z,37.30
2019-06-10T08:08:43.915Z,37.80
2019-06-10T08:11:13.665Z,37.00
2019-06-10T08:13:44.715Z,36.50
2019-06-10T08:16:13.274Z,36.40
2019-06-10T08:19:09.736Z,37.40
2019-06-10T08:21:12.472Z,38.30
2019-06-10T08:23:45.134Z,36.00
2019-06-10T08:26:12.808Z,35.90
2019-06-10T08:28:42.508Z,36.00
2019-06-10T08:31:12.312Z,33.40
2019-06-10T08:33:44.358Z,30.70
2019-06-10T08:36:13.645Z,29.50
2019-06-10T08:38:45.009Z,31.60
2019-06-10T08:41:12.362Z,32.90
2019-06-10T08:43:44.765Z,34.10
2019-06-10T08:46:13.195Z,33.00
2019-06-10T08:48:43.868Z,33.60
2019-06-10T08:51:12.567Z,35.10
2019-06-10T08:53:44.175Z,35.60
2019-06-10T08:56:13.087Z,35.90
2019-06-10T08:58:45.700Z,36.80
2019-06-10T09:01:13.235Z,37.40
2019-06-10T09:03:46.301Z,38.20
2019-06-10T09:06:13.321Z,38.70
2019-06-10T09:08:45.823Z,39.30
2019-06-10T09:11:13.041Z,39.70
2019-06-10T09:13:46.379Z,40.10
2019-06-10T09:16:18.902Z,40.40
2019-06-10T09:18:47.346Z,40.70
2019-06-10T09:21:13.045Z,41.00
2019-06-10T09:23:44.391Z,41.00
2019-06-10T09:26:12.505Z,41.20
2019-06-10T09:28:44.997Z,41.30
2019-06-10T09:31:14.070Z,41.60
2019-06-10T09:33:47.945Z,41.80
2019-06-10T09:36:12.612Z,42.30
2019-06-10T09:38:45.249Z,42.00
2019-06-10T09:41:14.142Z,42.20
2019-06-10T09:43:46.871Z,42.30
2019-06-10T09:46:13.917Z,42.30
2019-06-10T09:48:47.582Z,42.50
2019-06-10T09:51:13.599Z,42.60
2019-06-10T09:53:50.115Z,42.50
2019-06-10T09:56:12.615Z,42.60
2019-06-10T09:58:44.728Z,42.70
2019-06-10T10:01:13.360Z,42.70
2019-06-10T10:03:45.409Z,42.70
2019-06-10T10:06:15.660Z,42.80
2019-06-10T10:08:46.036Z,43.10
2019-06-10T10:11:13.269Z,43.10
2019-06-10T10:13:43.954Z,43.30
2019-06-10T10:16:13.201Z,43.40
2019-06-10T10:18:45.853Z,43.50
2019-06-10T10:21:13.021Z,43.50
2019-06-10T10:23:52.528Z,43.70
2019-06-10T10:26:13.216Z,43.70
2019-06-10T10:28:43.953Z,43.80
2019-06-10T10:31:13.245Z,44.40
2019-06-10T10:33:42.535Z,44.00
2019-06-10T10:36:14.119Z,44.20
2019-06-10T10:38:42.621Z,44.00
2019-06-10T10:41:13.297Z,44.00
2019-06-10T10:43:44.864Z,43.80
2019-06-10T10:46:13.825Z,44.10
2019-06-10T10:48:43.002Z,44.20
2019-06-10T10:51:13.082Z,44.40
2019-06-10T10:53:46.789Z,43.50
2019-06-10T10:56:12.975Z,44.90
2019-06-10T10:58:43.747Z,45.60
2019-06-10T11:01:14.946Z,45.40
2019-06-10T11:03:45.471Z,45.50
2019-06-10T11:06:13.451Z,45.20
2019-06-10T11:08:44.131Z,45.80
2019-06-10T11:11:13.978Z,45.50
2019-06-10T11:13:45.473Z,45.70
2019-06-10T11:16:14.422Z,45.50
2019-06-10T11:18:42.984Z,45.50
2019-06-10T11:21:13.296Z,45.80
2019-06-10T11:23:43.524Z,45.80
2019-06-10T11:26:13.062Z,46.00
2019-06-10T11:28:42.860Z,45.90
2019-06-10T11:31:13.787Z,45.90
2019-06-10T11:33:43.446Z,45.80
2019-06-10T11:36:13.560Z,46.00
2019-06-10T11:38:42.494Z,46.10
2019-06-10T11:41:13.551Z,46.30
2019-06-10T11:43:42.949Z,46.30
2019-06-10T11:46:13.681Z,46.30
2019-06-10T11:48:44.083Z,46.20
2019-06-10T11:51:12.968Z,46.20
2019-06-10T11:53:43.934Z,46.10
2019-06-10T11:56:13.085Z,46.20
2019-06-10T11:58:42.726Z,46.20
2019-06-10T12:01:13.108Z,46.20
2019-06-10T12:03:43.170Z,46.10
2019-06-10T12:06:13.705Z,46.20
2019-06-10T12:08:43.427Z,46.30
2019-06-10T12:11:12.994Z,46.20
2019-06-10T12:13:42.832Z,46.40
2019-06-10T12:18:42.727Z,46.30
2019-06-10T12:21:13.158Z,46.30
2019-06-10T12:23:43.565Z,46.30
2019-06-10T12:26:12.475Z,46.10
2019-06-10T12:28:43.250Z,46.20
2019-06-10T12:31:13.495Z,46.30
2019-06-10T12:33:42.240Z,46.40
2019-06-10T12:36:12.846Z,46.40
2019-06-10T12:38:43.296Z,46.30
2019-06-10T12:41:13.965Z,46.30
2019-06-10T12:43:43.291Z,46.20
2019-06-10T12:46:12.733Z,46.20
2019-06-10T12:48:42.693Z,46.40
2019-06-10T12:51:13.600Z,46.70
2019-06-10T12:53:43.321Z,45.90
2019-06-10T12:56:14.742Z,45.90
2019-06-10T12:58:43.132Z,45.90
2019-06-10T13:01:12.225Z,45.50
2019-06-10T13:03:43.234Z,45.70
2019-06-10T13:06:12.882Z,46.20
2019-06-10T13:08:43.565Z,45.50
2019-06-10T13:11:14.910Z,45.50
2019-06-10T13:13:44.412Z,45.60
2019-06-10T13:16:14.194Z,45.50
2019-06-10T13:18:43.495Z,45.50
2019-06-10T13:21:16.807Z,45.20
2019-06-10T13:23:43.123Z,45.20
2019-06-10T13:26:15.933Z,45.00
2019-06-10T13:28:44.061Z,45.00
2019-06-10T13:31:14.018Z,44.80
2019-06-10T13:33:43.187Z,45.30
2019-06-10T13:36:12.973Z,45.20
2019-06-10T13:38:42.881Z,45.20
2019-06-10T13:41:11.717Z,45.00
2019-06-10T13:43:40.354Z,44.90
2019-06-10T13:46:10.814Z,44.80
2019-06-10T13:48:39.182Z,44.90
2019-06-10T13:51:10.982Z,44.70
2019-06-10T13:53:37.998Z,44.70
2019-06-10T13:56:27.096Z,44.60
2019-06-10T13:58:36.769Z,44.50
2019-06-10T14:01:10.067Z,44.40
2019-06-10T14:03:35.906Z,44.40
2019-06-10T14:06:23.550Z,44.40
2019-06-10T14:08:35.923Z,44.30
2019-06-10T14:11:07.437Z,44.30
2019-06-10T14:13:34.802Z,44.50
2019-06-10T14:16:03.609Z,44.30
2019-06-10T14:18:33.598Z,44.90
2019-06-10T14:21:07.223Z,44.30
2019-06-10T14:23:33.197Z,44.30
2019-06-10T14:26:03.241Z,43.50
2019-06-10T14:28:40.828Z,45.40
2019-06-10T14:31:06.800Z,46.50
2019-06-10T14:33:33.136Z,48.20
2019-06-10T14:36:05.020Z,48.80
2019-06-10T14:38:32.689Z,50.80
2019-06-10T14:41:04.341Z,51.20
2019-06-10T14:43:33.174Z,51.10
2019-06-10T14:46:02.047Z,52.10
2019-06-10T14:48:33.456Z,52.80
2019-06-10T14:51:03.030Z,52.80
2019-06-10T14:53:33.460Z,52.60
2019-06-10T14:56:03.761Z,52.30
2019-06-10T14:58:31.721Z,52.70
2019-06-10T15:01:04.229Z,52.70
2019-06-10T15:03:32.807Z,52.70
2019-06-10T15:06:03.108Z,52.60
2019-06-10T15:08:32.271Z,52.60
2019-06-10T15:11:01.139Z,52.00
2019-06-10T15:13:32.576Z,51.80
2019-06-10T15:16:04.040Z,52.20
2019-06-10T15:18:32.814Z,52.00
2019-06-10T15:21:02.738Z,51.30
2019-06-10T15:23:32.443Z,51.70
2019-06-10T15:26:02.829Z,51.20
2019-06-10T15:28:31.756Z,51.20
2019-06-10T15:31:02.810Z,51.10
2019-06-10T15:33:32.610Z,50.80
2019-06-10T15:36:02.372Z,50.70
2019-06-10T15:38:32.864Z,51.10
2019-06-10T15:41:01.517Z,50.60
2019-06-10T15:43:30.133Z,50.40
2019-06-10T15:45:58.705Z,49.80
2019-06-10T15:48:27.282Z,49.60
2019-06-10T15:50:55.882Z,49.60
2019-06-10T15:53:25.833Z,49.30
2019-06-10T15:56:13.023Z,49.50
2019-06-10T15:58:26.117Z,49.20
2019-06-10T16:00:54.895Z,49.30
2019-06-10T16:03:25.667Z,48.30
2019-06-10T16:05:53.712Z,49.50
2019-06-10T16:08:22.673Z,49.60
2019-06-10T16:10:52.686Z,49.30
2019-06-10T16:13:25.224Z,49.60
2019-06-10T16:15:53.199Z,49.50
2019-06-10T16:18:26.071Z,49.70
2019-06-10T16:20:52.945Z,49.70
2019-06-10T16:23:24.297Z,49.60
2019-06-10T16:25:53.470Z,50.40
2019-06-10T16:28:23.478Z,50.40
2019-06-10T16:30:53.815Z,50.40
2019-06-10T16:33:26.095Z,50.70
2019-06-10T16:35:52.910Z,50.40
2019-06-10T16:38:23.708Z,50.60
2019-06-10T16:40:53.715Z,50.80
2019-06-10T16:43:24.026Z,50.00
2019-06-10T16:45:52.589Z,50.30
2019-06-10T16:48:21.850Z,50.00
2019-06-10T16:50:54.075Z,50.00
2019-06-10T16:53:27.880Z,49.80
2019-06-10T16:55:52.951Z,49.30
2019-06-10T16:58:25.178Z,49.50
2019-06-10T17:00:51.929Z,49.60
2019-06-10T17:03:24.671Z,50.10
2019-06-10T17:05:53.119Z,50.40
2019-06-10T17:08:25.937Z,50.60
2019-06-10T17:10:52.740Z,51.00
2019-06-10T17:13:24.939Z,50.70
2019-06-10T17:15:53.803Z,50.60
2019-06-10T17:18:23.638Z,50.90
2019-06-10T17:20:53.517Z,50.90
2019-06-10T17:23:26.507Z,50.80
2019-06-10T17:25:55.698Z,51.00
2019-06-10T17:28:28.949Z,50.90
2019-06-10T17:30:56.878Z,50.70
2019-06-10T17:33:27.211Z,50.70
2019-06-10T17:35:55.709Z,51.30
2019-06-10T17:38:24.717Z,50.70
2019-06-10T17:40:53.504Z,51.10
2019-06-10T17:43:23.327Z,51.00
2019-06-10T17:45:52.718Z,51.30
2019-06-10T17:48:23.691Z,51.20
2019-06-10T17:50:52.465Z,51.20
2019-06-10T17:53:22.388Z,51.20
2019-06-10T17:55:51.207Z,51.20
2019-06-10T17:58:37.621Z,51.50
2019-06-10T18:00:52.842Z,51.40
2019-06-10T18:03:22.632Z,50.40
2019-06-10T18:05:53.114Z,50.90
2019-06-10T18:08:22.855Z,50.50
2019-06-10T18:10:53.490Z,50.30
2019-06-10T18:13:22.711Z,50.10
2019-06-10T18:15:53.470Z,49.90
2019-06-10T18:18:21.926Z,50.10
2019-06-10T18:20:53.599Z,50.40
2019-06-10T18:23:22.944Z,50.90
2019-06-10T18:25:52.768Z,51.00
2019-06-10T18:28:22.592Z,50.90
2019-06-10T18:30:53.141Z,50.80
2019-06-10T18:33:22.950Z,51.40
2019-06-10T18:35:53.259Z,51.30
2019-06-10T18:38:22.281Z,51.40
2019-06-10T18:40:53.390Z,51.60
2019-06-10T18:43:23.020Z,51.10
2019-06-10T18:45:53.205Z,52.00
2019-06-10T18:48:23.131Z,51.80
2019-06-10T18:50:53.268Z,51.50
2019-06-10T18:53:23.446Z,51.90
2019-06-10T18:55:54.524Z,52.00
2019-06-10T18:58:22.531Z,51.90
2019-06-10T19:01:00.652Z,51.70
2019-06-10T19:03:23.326Z,51.80
2019-06-10T19:05:52.990Z,51.90
2019-06-10T19:08:22.529Z,51.70
2019-06-10T19:10:53.377Z,51.70
2019-06-10T19:13:22.521Z,51.80
2019-06-10T19:15:53.166Z,51.80
2019-06-10T19:18:23.248Z,51.80
2019-06-10T19:20:53.444Z,51.70
2019-06-10T19:23:22.919Z,51.80
2019-06-10T19:25:52.604Z,51.70
2019-06-10T19:28:22.773Z,52.00
2019-06-10T19:30:53.396Z,51.90
2019-06-10T19:33:23.699Z,51.90
2019-06-10T19:35:53.200Z,51.90
2019-06-10T19:38:23.160Z,51.90
2019-06-10T19:40:52.491Z,51.90
2019-06-10T19:43:21.125Z,52.00
2019-06-10T19:45:49.718Z,52.00
2019-06-10T19:48:18.339Z,52.00
2019-06-10T19:50:50.126Z,52.00
2019-06-10T19:53:17.845Z,52.00
2019-06-10T19:55:46.450Z,51.80
2019-06-10T19:58:15.043Z,52.00
2019-06-10T20:00:50.951Z,52.10
2019-06-10T20:03:14.178Z,51.90
2019-06-10T20:05:45.288Z,52.00
2019-06-10T20:08:13.028Z,52.00
2019-06-10T20:10:42.408Z,51.90
2019-06-10T20:13:11.112Z,51.80
2019-06-10T20:15:39.713Z,51.80
2019-06-10T20:18:08.344Z,51.90
2019-06-10T20:20:38.267Z,51.90
2019-06-10T20:23:08.863Z,52.00
2019-06-10T20:25:38.365Z,52.00
2019-06-10T20:28:07.267Z,52.10
2019-06-10T20:30:37.277Z,52.00
2019-06-10T20:33:05.996Z,52.00
2019-06-10T20:35:34.621Z,52.10
2019-06-10T20:38:05.040Z,52.10
2019-06-10T20:40:35.605Z,51.80
2019-06-10T20:43:03.722Z,52.20
2019-06-10T20:45:33.206Z,52.20
2019-06-10T20:48:02.948Z,52.20
2019-06-10T20:50:32.383Z,52.10
2019-06-10T20:53:11.876Z,52.10
2019-06-10T20:55:40.534Z,52.20
2019-06-10T20:58:06.230Z,52.10
2019-06-10T21:00:45.655Z,52.20
2019-06-10T21:03:08.962Z,52.20
2019-06-10T21:05:37.522Z,52.20
2019-06-10T21:08:06.540Z,52.30
2019-06-10T21:10:37.102Z,52.40
2019-06-10T21:13:06.897Z,52.50
2019-06-10T21:15:36.820Z,52.50
2019-06-10T21:18:06.570Z,52.60
2019-06-10T21:20:35.118Z,52.70
2019-06-10T21:23:04.384Z,52.80
2019-06-10T21:25:33.028Z,52.90
2019-06-10T21:28:03.237Z,53.00
2019-06-10T21:30:41.439Z,53.10
2019-06-10T21:33:03.494Z,53.10
2019-06-10T21:35:34.918Z,53.10
2019-06-10T21:38:03.573Z,53.30
2019-06-10T21:40:33.056Z,53.30
2019-06-10T21:43:02.826Z,53.40
2019-06-10T21:45:32.641Z,53.50
2019-06-10T21:48:02.369Z,53.50
2019-06-10T21:50:33.377Z,53.50
2019-06-10T21:53:02.904Z,53.60
2019-06-10T21:55:33.000Z,53.60
2019-06-10T21:58:03.696Z,53.70
2019-06-10T22:00:51.642Z,53.70
2019-06-10T22:03:04.765Z,53.70
2019-06-10T22:05:33.413Z,53.70
2019-06-10T22:08:03.155Z,53.80
2019-06-10T22:10:33.598Z,53.70
2019-06-10T22:13:03.170Z,53.90
2019-06-10T22:15:33.304Z,53.90
2019-06-10T22:18:02.422Z,53.90
2019-06-10T22:20:32.470Z,53.90
2019-06-10T22:23:02.664Z,54.00
2019-06-10T22:25:32.879Z,54.00
2019-06-10T22:28:02.780Z,54.40
2019-06-10T22:30:32.164Z,54.00
2019-06-10T22:33:03.224Z,54.00
2019-06-10T22:35:31.299Z,53.90
2019-06-10T22:37:59.882Z,53.90
2019-06-10T22:40:28.458Z,53.60
2019-06-10T22:42:57.036Z,53.70
2019-06-10T22:45:25.634Z,53.70
2019-06-10T22:47:55.342Z,53.80
2019-06-10T22:50:24.445Z,53.70
2019-06-10T22:52:55.534Z,53.70
2019-06-10T22:55:23.296Z,53.60
2019-06-10T22:57:54.679Z,53.60
2019-06-10T23:00:22.864Z,53.50
2019-06-10T23:02:54.642Z,53.50
2019-06-10T23:05:23.221Z,53.40
2019-06-10T23:07:53.305Z,53.40
2019-06-10T23:10:22.865Z,53.30
2019-06-10T23:12:54.950Z,53.30
2019-06-10T23:15:23.449Z,53.20
2019-06-10T23:17:55.064Z,53.70
2019-06-10T23:20:22.572Z,53.20
2019-06-10T23:22:54.404Z,53.20
2019-06-10T23:25:22.064Z,53.10
2019-06-10T23:27:54.434Z,53.10
2019-06-10T23:30:22.427Z,53.00
2019-06-10T23:32:54.494Z,53.10
2019-06-10T23:35:23.032Z,53.10
2019-06-10T23:37:55.101Z,53.10
2019-06-10T23:40:23.464Z,53.10
2019-06-10T23:42:53.132Z,53.00
2019-06-10T23:45:22.474Z,53.00
2019-06-10T23:47:52.949Z,53.00
2019-06-10T23:50:22.500Z,52.90
2019-06-10T23:52:54.122Z,52.90
2019-06-10T23:55:22.768Z,52.90
2019-06-10T23:57:52.986Z,52.80
